Terminal Aerodrome Forecast
Issued by NWS Cleveland, OH

Home | Current Version | Previous Version | Text Only | Print | Product List | Glossary Off
Versions: 1 2 3 4 5 6 7 8 9 10 11 12 13 14 15 16 17 18 19 20 21 22 23 24 25 26 27

000
FTUS41 KCLE 161500 AAA
TAFCAK
TAF AMD
KCAK 161516Z 1615/1712 17008KT 5SM -SHRA BR OVC009
      TEMPO 1615/1618 SCT008 OVC025
     FM161800 20010KT 4SM BR VCSH OVC008
     FM170500 24011KT 6SM BR OVC008=

USA.gov is the U.S. government's official web portal to all federal, state and local government web resources and services.